TVC weather

Cherry Capital Airport
Traverse City, Michigan, United States

Public forecast

Using degrees Fahrenheit for public forecast. Weather courtesy of forecast.io.

Current aviation weather report (METAR) for Cherry Capital Airport

Retrieved 2019/12/16 03:53 UTC (42 minutes ago):

KTVC 160353Z AUTO 19005KT 10SM OVC034 M04/M09 A3009 RMK AO2 SLP200 T10441094

Aviation forecast (TAF) for Cherry Capital Airport

Retrieved 2019-12-16 00:24 UTC (4 hours ago):

TAF KTVC 152322Z 1600/1624 25007KT P6SM BKN035 FM160500 22007KT P6SM BKN050 FM161900 25009KT P6SM BKN070 FM162100 25008KT P6SM BKN050 FM162300 25007KT P6SM OVC028